Terminal Aerodrome Forecast
Issued by NWS

Home | Current Version | Previous Version | Text Only | Print | Product List | Glossary On
Versions: 1 2 3 4 5 6 7 8 9 10 11 12 13 14 15 16 17 18
000
FTUS46 KLOX 282300
TAFLGB
TAF
KLGB 282333Z 2900/2924 29012KT P6SM BKN150
     FM290500 VRB03KT P6SM SCT150
     FM291100 VRB03KT P6SM OVC012
     FM291600 VRB03KT P6SM SCT018 SCT200
     FM291900 21008KT P6SM SKC
     FM292300 29008KT P6SM SKC=

USA.gov is the U.S. government's official web portal to all federal, state and local government web resources and services.